Time;durP1;ratioP1;P1;durP2;ratioP2;P2;SDS_P1;SDS_P2;PMS_P1;PMS_P2;Temp;Humidity;BMP_temperature;BMP_pressure;BME280_temperature;BME280_humidity;BME280_pressure;Samples;Min_cycle;Max_cycle;Signal;HPM_P1;HPM_P2
2021/08/17 00:00:41;;;;;;;12.13;5.97;;;;;;;15.26;100.00;95552.59;2608181;54;20038;-62
2021/08/17 00:03:11;;;;;;;8.85;4.65;;;;;;;15.26;100.00;95549.94;2608223;54;20042;-62
2021/08/17 00:05:42;;;;;;;10.32;5.40;;;;;;;15.26;100.00;95546.50;2609366;54;20065;-63
2021/08/17 00:08:12;;;;;;;13.48;6.93;;;;;;;15.22;100.00;95533.78;2608190;54;20046;-62
2021/08/17 00:10:40;;;;;;;13.45;5.85;;;;;;;15.23;100.00;95515.97;2608654;54;20062;-62
2021/08/17 00:13:12;;;;;;;11.73;5.45;;;;;;;15.22;100.00;95525.81;2609131;54;20073;-62
2021/08/17 00:15:43;;;;;;;8.05;4.88;;;;;;;15.23;100.00;95515.97;2609948;54;20062;-63
2021/08/17 00:18:11;;;;;;;11.18;6.22;;;;;;;15.20;100.00;95505.97;2609452;54;20942;-63
2021/08/17 00:20:41;;;;;;;11.27;5.82;;;;;;;15.23;100.00;95492.06;2610386;54;20038;-62
2021/08/17 00:23:10;;;;;;;8.15;4.82;;;;;;;15.23;100.00;95486.75;2608751;54;20070;-63
2021/08/17 00:25:42;;;;;;;11.93;6.32;;;;;;;15.21;100.00;95523.44;2610679;46;20086;-63
2021/08/17 00:28:11;;;;;;;13.00;5.93;;;;;;;15.21;100.00;95550.00;2608746;54;20050;-62
2021/08/17 00:30:39;;;;;;;17.02;7.95;;;;;;;15.21;100.00;95571.28;2607774;54;20046;-61
2021/08/17 00:33:07;;;;;;;11.45;6.45;;;;;;;15.24;100.00;95568.03;2606778;54;20130;-65
2021/08/17 00:35:37;;;;;;;7.70;5.72;;;;;;;15.27;100.00;95556.03;2607744;54;20070;-62
2021/08/17 00:38:06;;;;;;;14.27;6.30;;;;;;;15.29;100.00;95548.53;2609697;54;20039;-62
2021/08/17 00:40:34;;;;;;;11.70;6.10;;;;;;;15.26;100.00;95536.66;2607415;54;20181;-63
2021/08/17 00:43:03;;;;;;;13.52;7.55;;;;;;;15.29;100.00;95552.00;2609701;54;20042;-63
2021/08/17 00:45:31;;;;;;;11.35;6.47;;;;;;;15.29;100.00;95578.56;2609563;54;20134;-62
2021/08/17 00:47:59;;;;;;;9.35;6.60;;;;;;;15.31;100.00;95580.94;2608139;54;20046;-62
2021/08/17 00:50:28;;;;;;;15.27;6.18;;;;;;;15.34;100.00;95561.75;2608150;54;20046;-62
2021/08/17 00:52:57;;;;;;;10.15;5.53;;;;;;;15.31;100.00;95533.91;2609591;54;20049;-61
2021/08/17 00:55:26;;;;;;;14.00;6.03;;;;;;;15.29;100.00;95552.00;2606565;54;20062;-62
2021/08/17 00:57:55;;;;;;;7.65;5.10;;;;;;;15.29;100.00;95567.94;2609204;54;20038;-63
2021/08/17 01:00:24;;;;;;;8.23;5.40;;;;;;;15.34;100.00;95575.81;2609466;54;20038;-62
2021/08/17 01:02:52;;;;;;;8.20;5.05;;;;;;;15.35;100.00;95565.97;2609989;54;20053;-62
2021/08/17 01:05:29;;;;;;;6.53;4.75;;;;;;;15.28;100.00;95562.91;2608543;47;20045;-62
2021/08/17 01:08:03;;;;;;;7.22;4.38;;;;;;;15.19;100.00;95573.44;2608581;54;20042;-63
2021/08/17 01:10:30;;;;;;;10.38;5.90;;;;;;;15.22;100.00;95578.16;2609190;54;20069;-62
2021/08/17 01:12:58;;;;;;;9.02;6.43;;;;;;;15.20;100.00;95578.47;2604386;54;20070;-63
2021/08/17 01:15:26;;;;;;;11.05;6.53;;;;;;;15.21;100.00;95582.69;2603810;54;20043;-63
2021/08/17 01:17:54;;;;;;;11.63;6.80;;;;;;;15.21;100.00;95576.59;2602083;54;20070;-62
2021/08/17 01:20:23;;;;;;;9.07;6.07;;;;;;;15.16;100.00;95547.47;2602070;54;20080;-63
2021/08/17 01:22:50;;;;;;;16.38;8.82;;;;;;;15.15;100.00;95541.34;2607600;54;20048;-63
2021/08/17 01:25:18;;;;;;;12.18;6.85;;;;;;;15.14;100.00;95549.63;2609471;54;20042;-63
2021/08/17 01:27:47;;;;;;;8.13;5.30;;;;;;;15.09;100.00;95550.50;2606175;54;20045;-63
2021/08/17 01:30:16;;;;;;;11.10;7.25;;;;;;;15.08;100.00;95559.56;2609808;54;20046;-62
2021/08/17 01:32:46;;;;;;;13.63;8.90;;;;;;;15.05;100.00;95571.56;2607960;54;20038;-63
2021/08/17 01:35:16;;;;;;;9.10;6.60;;;;;;;15.06;100.00;95573.13;2609636;54;20035;-63
2021/08/17 01:37:44;;;;;;;12.00;6.68;;;;;;;15.05;100.00;95571.56;2610067;54;20795;-63
2021/08/17 01:40:13;;;;;;;10.43;7.30;;;;;;;14.98;100.00;95579.09;2610398;54;20066;-63
2021/08/17 01:42:45;;;;;;;12.27;8.15;;;;;;;14.98;100.00;95584.41;2609994;54;20157;-63
2021/08/17 01:45:13;;;;;;;11.95;7.05;;;;;;;15.02;100.00;95588.06;2608089;54;20042;-63
2021/08/17 01:47:44;;;;;;;11.27;6.28;;;;;;;14.99;100.00;95591.31;2610165;54;20133;-65
2021/08/17 01:50:12;;;;;;;14.02;9.02;;;;;;;14.90;100.00;95567.28;2609414;54;20052;-62
2021/08/17 01:52:40;;;;;;;15.25;8.10;;;;;;;14.87;100.00;95583.81;2609935;54;20038;-62
2021/08/17 01:55:10;;;;;;;10.90;6.57;;;;;;;14.84;100.00;95578.28;2608443;54;20054;-63
2021/08/17 01:57:39;;;;;;;18.23;9.32;;;;;;;14.80;100.00;95578.06;2608645;54;20038;-62
2021/08/17 02:00:08;;;;;;;8.55;6.88;;;;;;;14.77;100.00;95586.63;2610354;54;20042;-63
2021/08/17 02:02:37;;;;;;;12.75;7.72;;;;;;;14.81;100.00;95592.16;2606894;54;20660;-62
2021/08/17 02:05:09;;;;;;;17.08;8.95;;;;;;;14.78;100.00;95596.16;2608746;54;20046;-62
2021/08/17 02:07:37;;;;;;;14.05;8.85;;;;;;;14.81;100.00;95597.47;2607954;54;20049;-62
2021/08/17 02:10:06;;;;;;;20.92;10.27;;;;;;;14.78;100.00;95587.41;2609553;54;20038;-62
2021/08/17 02:12:34;;;;;;;17.23;9.70;;;;;;;14.67;100.00;95595.56;2607599;54;20201;-63
2021/08/17 02:15:05;;;;;;;16.42;10.30;;;;;;;14.59;100.00;95598.81;2608299;39;20917;-63
2021/08/17 02:17:35;;;;;;;13.63;9.48;;;;;;;14.56;100.00;95605.50;2608266;54;20042;-62
2021/08/17 02:20:06;;;;;;;19.05;10.43;;;;;;;14.57;100.00;95607.06;2610523;54;20039;-62
2021/08/17 02:36:34;;;;;;;11.93;7.72;;;;;;;14.75;100.00;95596.75;2544364;54;3680834;-65
2021/08/17 02:39:04;;;;;;;10.73;7.13;;;;;;;14.79;100.00;95604.94;2609687;54;20041;-64
2021/08/17 02:41:34;;;;;;;11.73;8.95;;;;;;;14.74;100.00;95585.34;2612343;54;20038;-64
2021/08/17 02:44:04;;;;;;;12.93;7.65;;;;;;;14.69;100.00;95581.97;2613919;54;20064;-64
2021/08/17 02:46:35;;;;;;;9.35;6.47;;;;;;;14.64;100.00;95572.19;2614660;54;20501;-63
2021/08/17 02:49:04;;;;;;;15.60;10.68;;;;;;;14.62;100.00;95571.69;2612106;38;20535;-63
2021/08/17 02:51:32;;;;;;;9.43;8.13;;;;;;;14.54;100.00;95575.03;2610775;54;20065;-63
2021/08/17 02:54:00;;;;;;;12.90;10.52;;;;;;;14.52;100.00;95590.44;2613550;54;20072;-64
2021/08/17 02:56:27;;;;;;;16.05;10.38;;;;;;;14.55;100.00;95613.75;2612124;54;20853;-63
2021/08/17 02:58:55;;;;;;;12.98;10.27;;;;;;;14.54;100.00;95625.44;2611955;54;20160;-63
2021/08/17 03:01:23;;;;;;;13.65;9.15;;;;;;;14.54;100.00;95609.53;2609317;54;20069;-65
2021/08/17 03:03:51;;;;;;;10.40;7.22;;;;;;;14.55;100.00;95579.25;2610283;54;20069;-63
2021/08/17 03:06:19;;;;;;;13.23;8.70;;;;;;;14.57;100.00;95558.53;2614776;31;20517;-64
2021/08/17 03:08:47;;;;;;;12.00;9.90;;;;;;;14.58;100.00;95538.88;2611283;54;20609;-63
2021/08/17 03:11:15;;;;;;;16.75;10.65;;;;;;;14.57;100.00;95514.19;2611877;54;20045;-63
2021/08/17 03:13:43;;;;;;;8.98;7.28;;;;;;;14.59;100.00;95540.41;2610158;54;20599;-62
2021/08/17 03:16:11;;;;;;;11.52;8.75;;;;;;;14.53;100.00;95558.28;2609885;54;20045;-63
2021/08/17 03:18:39;;;;;;;14.07;10.50;;;;;;;14.42;100.00;95572.78;2607331;54;20500;-64
2021/08/17 03:21:07;;;;;;;17.05;11.82;;;;;;;14.39;100.00;95568.88;2610349;54;20046;-63
2021/08/17 03:23:35;;;;;;;19.02;12.60;;;;;;;14.39;100.00;95566.22;2609464;54;20042;-64
2021/08/17 03:26:02;;;;;;;27.38;14.75;;;;;;;14.43;100.00;95561.91;2612332;54;20064;-63
2021/08/17 03:28:30;;;;;;;14.05;9.95;;;;;;;14.49;100.00;95580.41;2612193;46;20042;-63
2021/08/17 03:30:58;;;;;;;15.68;11.00;;;;;;;14.52;100.00;95590.44;2611089;54;20048;-62
2021/08/17 03:33:26;;;;;;;21.38;12.93;;;;;;;14.55;100.00;95592.53;2610428;54;20088;-66
2021/08/17 03:35:58;;;;;;;22.27;13.32;;;;;;;14.55;100.00;95592.53;2606902;54;20516;-64
2021/08/17 03:38:27;;;;;;;30.20;13.27;;;;;;;14.55;100.00;95589.88;2610011;54;20073;-64
2021/08/17 03:40:55;;;;;;;20.50;13.85;;;;;;;14.51;100.00;95591.50;2608277;54;20038;-63
2021/08/17 03:43:24;;;;;;;21.75;13.68;;;;;;;14.50;100.00;95587.28;2608842;54;20042;-67
2021/08/17 03:45:54;;;;;;;12.05;10.38;;;;;;;14.52;100.00;95587.78;2607947;54;20960;-62
2021/08/17 03:48:22;;;;;;;11.80;9.77;;;;;;;14.52;100.00;95593.09;2606934;54;20039;-62
2021/08/17 03:50:50;;;;;;;11.45;10.27;;;;;;;14.47;100.00;95615.19;2607832;54;20041;-62
2021/08/17 03:53:18;;;;;;;14.43;9.85;;;;;;;14.45;100.00;95614.69;2609913;54;20046;-63
2021/08/17 03:55:46;;;;;;;16.58;10.45;;;;;;;14.51;100.00;95610.09;2607287;54;20043;-63
2021/08/17 03:58:14;;;;;;;13.30;10.32;;;;;;;14.54;100.00;95620.13;2606820;54;20597;-65
2021/08/17 04:00:42;;;;;;;16.92;10.75;;;;;;;14.54;100.00;95628.09;2608367;54;20078;-63
2021/08/17 04:03:10;;;;;;;11.60;9.75;;;;;;;14.57;100.00;95627.53;2608308;39;20445;-64
2021/08/17 04:05:38;;;;;;;13.55;10.95;;;;;;;14.58;100.00;95615.84;2610183;54;20039;-63
2021/08/17 04:08:07;;;;;;;18.65;11.05;;;;;;;14.60;100.00;95613.66;2609565;54;20661;-64
2021/08/17 04:10:39;;;;;;;19.90;11.15;;;;;;;14.63;100.00;95618.41;2608171;54;20045;-63
2021/08/17 04:13:07;;;;;;;16.60;11.63;;;;;;;14.64;100.00;95622.63;2609077;39;20547;-64
2021/08/17 04:15:35;;;;;;;13.95;10.40;;;;;;;14.60;100.00;95640.22;2605215;54;20092;-64
2021/08/17 04:18:03;;;;;;;13.27;8.68;;;;;;;14.68;100.00;95665.34;2607426;54;20126;-65
2021/08/17 04:20:32;;;;;;;8.68;7.75;;;;;;;14.67;100.00;95669.06;2607546;54;20125;-63
2021/08/17 04:23:00;;;;;;;12.07;8.85;;;;;;;14.68;100.00;95671.47;2606137;54;20042;-63
2021/08/17 04:25:28;;;;;;;20.70;11.35;;;;;;;14.68;100.00;95674.13;2608580;54;20038;-62
2021/08/17 04:27:56;;;;;;;14.82;9.43;;;;;;;14.71;100.00;95684.16;2608135;54;20043;-64
2021/08/17 04:30:23;;;;;;;12.65;9.05;;;;;;;14.73;100.00;95689.97;2606911;47;20065;-63
2021/08/17 04:32:51;;;;;;;12.65;9.57;;;;;;;14.74;100.00;95674.84;2607638;39;20433;-63
2021/08/17 04:35:20;;;;;;;16.17;11.40;;;;;;;14.75;100.00;95677.19;2608937;54;20057;-63
2021/08/17 04:37:48;;;;;;;13.57;11.25;;;;;;;14.71;100.00;95654.16;2607501;54;20589;-63
2021/08/17 04:40:16;;;;;;;16.35;9.85;;;;;;;14.70;100.00;95632.16;2607444;54;20648;-63
2021/08/17 04:42:44;;;;;;;10.68;7.72;;;;;;;14.69;100.00;95625.25;2606999;54;20042;-63
2021/08/17 04:45:12;;;;;;;16.95;10.23;;;;;;;14.70;100.00;95650.72;2606141;54;20078;-64
2021/08/17 04:47:47;;;;;;;12.07;10.02;;;;;;;14.74;100.00;95672.97;2606743;54;20042;-64
2021/08/17 04:50:19;;;;;;;17.60;10.27;;;;;;;14.76;100.00;95680.66;2607765;54;20054;-63
2021/08/17 04:52:48;;;;;;;10.98;9.80;;;;;;;14.80;100.00;95686.16;2608066;54;20043;-63
2021/08/17 04:55:16;;;;;;;14.98;10.43;;;;;;;14.78;100.00;95670.50;2609146;54;20042;-63
2021/08/17 04:57:55;;;;;;;12.13;9.35;;;;;;;14.84;100.00;95673.88;2604663;54;20043;-63
2021/08/17 05:00:25;;;;;;;11.35;9.45;;;;;;;14.82;100.00;95681.38;2608227;54;20062;-63
2021/08/17 05:02:54;;;;;;;14.57;10.45;;;;;;;14.84;100.00;95677.34;2606890;54;20038;-63
2021/08/17 05:05:23;;;;;;;24.55;13.95;;;;;;;14.84;100.00;95679.19;2608077;54;20557;-63
2021/08/17 05:07:51;;;;;;;11.88;8.60;;;;;;;14.87;100.00;95682.06;2607126;54;20054;-63
2021/08/17 05:10:22;;;;;;;17.52;12.18;;;;;;;14.88;100.00;95674.88;2607432;39;20453;-64
2021/08/17 05:12:50;;;;;;;11.90;7.78;;;;;;;14.90;100.00;95673.50;2607589;54;20089;-63
2021/08/17 05:15:18;;;;;;;10.30;7.90;;;;;;;14.93;100.00;95671.34;2607496;54;20077;-62
2021/08/17 05:17:46;;;;;;;15.95;8.43;;;;;;;14.95;100.00;95663.91;2608039;54;20043;-63
2021/08/17 05:20:15;;;;;;;10.95;7.88;;;;;;;14.96;100.00;95670.78;2608863;54;20038;-63
2021/08/17 05:22:45;;;;;;;11.40;8.93;;;;;;;14.99;100.00;95672.88;2606896;54;20042;-63
2021/08/17 05:25:13;;;;;;;11.75;9.02;;;;;;;15.01;100.00;95674.16;2605192;54;20065;-63
2021/08/17 05:27:42;;;;;;;9.85;8.43;;;;;;;15.02;100.00;95673.06;2605485;54;20080;-63
2021/08/17 05:30:11;;;;;;;22.05;13.05;;;;;;;15.01;100.00;95679.47;2606236;54;20061;-62
2021/08/17 05:32:41;;;;;;;11.70;9.18;;;;;;;15.03;100.00;95673.84;2607580;54;20042;-65
2021/08/17 05:35:10;;;;;;;12.38;9.98;;;;;;;15.05;100.00;95669.84;2608518;54;20065;-65
2021/08/17 05:37:38;;;;;;;12.13;10.07;;;;;;;15.14;100.00;95671.84;2605616;54;20042;-62
2021/08/17 05:40:07;;;;;;;10.95;7.70;;;;;;;15.22;100.00;95668.50;2605794;54;20077;-63
2021/08/17 05:42:34;;;;;;;17.38;10.85;;;;;;;15.29;100.00;95666.28;2606481;54;20038;-63
2021/08/17 05:45:03;;;;;;;11.85;9.20;;;;;;;15.36;100.00;95655.25;2608090;54;20060;-64
2021/08/17 05:47:31;;;;;;;11.02;8.77;;;;;;;15.43;100.00;95671.59;2609234;54;20046;-63
2021/08/17 05:50:00;;;;;;;15.50;10.23;;;;;;;15.45;100.00;95672.09;2609158;54;20065;-63
2021/08/17 05:52:29;;;;;;;9.57;8.27;;;;;;;15.53;100.00;95681.28;2608135;54;20042;-63
2021/08/17 05:54:56;;;;;;;15.05;10.18;;;;;;;15.65;100.00;95680.78;2607654;54;20042;-64
2021/08/17 05:57:24;;;;;;;12.32;8.93;;;;;;;15.73;100.00;95671.34;2609209;54;20062;-64
2021/08/17 05:59:52;;;;;;;11.80;8.35;;;;;;;15.70;100.00;95672.72;2607595;39;20449;-64
2021/08/17 06:02:20;;;;;;;9.70;5.85;;;;;;;15.79;100.00;95691.47;2608689;54;20585;-64
2021/08/17 06:04:48;;;;;;;8.18;6.50;;;;;;;15.82;100.00;95696.16;2607339;54;20042;-64
2021/08/17 06:07:17;;;;;;;7.97;6.75;;;;;;;15.87;100.00;95696.13;2608002;54;20038;-64
2021/08/17 06:09:46;;;;;;;6.85;5.85;;;;;;;15.90;100.00;95697.38;2607218;54;20042;-64
2021/08/17 06:12:13;;;;;;;9.32;6.70;;;;;;;15.95;100.00;95702.63;2603282;54;20065;-63
2021/08/17 06:14:42;;;;;;;10.05;5.68;;;;;;;15.99;100.00;95706.28;2609177;46;20104;-63
2021/08/17 06:17:10;;;;;;;12.90;8.02;;;;;;;16.00;100.00;95713.16;2606510;54;20711;-63
2021/08/17 06:19:37;;;;;;;9.77;8.25;;;;;;;16.03;100.00;95709.13;2607903;54;20049;-61
2021/08/17 06:22:05;;;;;;;5.88;4.55;;;;;;;15.98;100.00;95705.47;2609828;54;20049;-62
2021/08/17 06:24:33;;;;;;;7.85;6.32;;;;;;;15.99;100.00;95706.28;2609802;54;20042;-63
2021/08/17 06:27:01;;;;;;;7.95;6.03;;;;;;;16.07;100.00;95696.78;2608338;54;20073;-64
2021/08/17 06:29:28;;;;;;;6.57;5.35;;;;;;;16.09;100.00;95694.63;2608087;54;20064;-63
2021/08/17 06:31:56;;;;;;;10.48;6.25;;;;;;;16.16;100.00;95688.91;2609102;46;20070;-64
2021/08/17 06:34:24;;;;;;;7.22;6.53;;;;;;;16.22;100.00;95685.84;2609546;54;20042;-64
2021/08/17 06:36:51;;;;;;;15.13;8.48;;;;;;;16.28;100.00;95687.34;2607842;54;20069;-64
2021/08/17 06:39:20;;;;;;;10.27;6.82;;;;;;;16.37;100.00;95690.06;2607053;54;20049;-64
2021/08/17 06:41:48;;;;;;;8.80;5.28;;;;;;;16.46;100.00;95687.50;2609030;54;20042;-64
2021/08/17 06:44:16;;;;;;;5.75;5.18;;;;;;;16.58;100.00;95690.44;2608559;54;20991;-62
2021/08/17 06:46:46;;;;;;;9.98;5.70;;;;;;;16.90;100.00;95695.88;2608500;54;20101;-62
2021/08/17 06:49:13;;;;;;;9.25;6.68;;;;;;;17.17;100.00;95700.31;2607877;54;20700;-63
2021/08/17 06:51:41;;;;;;;6.88;5.60;;;;;;;17.35;100.00;95709.22;2606362;54;20046;-62
2021/08/17 06:54:09;;;;;;;7.18;5.85;;;;;;;17.47;100.00;95713.22;2607315;54;20043;-62
2021/08/17 06:56:37;;;;;;;8.35;6.82;;;;;;;17.53;100.00;95712.00;2607506;54;20576;-61
2021/08/17 06:59:04;;;;;;;9.27;7.00;;;;;;;17.58;99.27;95711.06;2607071;54;20249;-63
2021/08/17 07:01:32;;;;;;;11.85;8.13;;;;;;;17.65;100.00;95714.88;2607451;54;20050;-64
2021/08/17 07:04:00;;;;;;;8.68;6.90;;;;;;;17.81;100.00;95723.28;2606876;39;20415;-63
2021/08/17 07:06:28;;;;;;;5.93;4.78;;;;;;;18.08;100.00;95718.09;2607492;54;21045;-64
2021/08/17 07:08:58;;;;;;;7.35;4.97;;;;;;;18.28;95.70;95706.03;2605507;54;20079;-63
2021/08/17 07:11:26;;;;;;;4.25;3.50;;;;;;;18.44;90.63;95711.75;2606129;54;20038;-64
2021/08/17 07:13:53;;;;;;;6.68;4.47;;;;;;;18.49;87.20;95708.16;2605888;54;20169;-63
2021/08/17 07:16:21;;;;;;;6.28;3.28;;;;;;;18.61;82.72;95705.66;2608090;54;20042;-63
2021/08/17 07:18:53;;;;;;;6.57;3.53;;;;;;;18.86;84.86;95703.31;2607606;54;20042;-63
2021/08/17 07:21:21;;;;;;;6.40;3.75;;;;;;;19.09;81.44;95708.53;2606141;54;20046;-65
2021/08/17 07:23:49;;;;;;;5.65;3.85;;;;;;;19.20;77.95;95709.78;2607145;54;20039;-63
2021/08/17 07:26:18;;;;;;;5.60;3.42;;;;;;;19.18;77.77;95707.44;2606399;54;20080;-63
2021/08/17 07:28:46;;;;;;;3.78;2.90;;;;;;;19.23;75.78;95709.16;2608177;39;20812;-63
2021/08/17 07:31:14;;;;;;;6.13;2.92;;;;;;;19.17;74.26;95702.38;2606402;54;20073;-62
2021/08/17 07:33:41;;;;;;;4.32;3.50;;;;;;;19.14;74.40;95713.72;2607764;54;20045;-63
2021/08/17 07:36:10;;;;;;;6.28;4.05;;;;;;;18.94;73.34;95707.91;2609213;54;20571;-61
2021/08/17 07:38:38;;;;;;;8.65;3.80;;;;;;;18.58;76.59;95706.28;2608072;54;22420;-62
2021/08/17 07:41:06;;;;;;;3.88;3.30;;;;;;;18.48;76.78;95701.25;2608702;54;20038;-64
2021/08/17 07:43:34;;;;;;;4.45;3.42;;;;;;;18.40;73.41;95705.47;2609067;54;20050;-62
2021/08/17 07:46:02;;;;;;;4.57;3.17;;;;;;;18.37;76.64;95712.22;2607575;54;20050;-65
2021/08/17 07:48:45;;;;;;;4.95;3.80;;;;;;;18.29;78.18;95724.44;2608571;54;20030;-65
2021/08/17 07:51:13;;;;;;;4.68;3.20;;;;;;;18.18;79.17;95736.50;2606703;54;20053;-65
2021/08/17 07:53:41;;;;;;;5.43;3.80;;;;;;;18.01;80.16;95737.22;2607466;54;20053;-63
2021/08/17 07:56:09;;;;;;;5.20;3.35;;;;;;;17.92;78.73;95736.34;2607975;54;20159;-65
2021/08/17 07:58:37;;;;;;;8.77;4.10;;;;;;;17.77;77.80;95735.69;2608029;54;20061;-62
2021/08/17 08:01:05;;;;;;;5.78;3.83;;;;;;;17.53;80.53;95736.00;2607774;54;20046;-61
2021/08/17 08:03:34;;;;;;;5.18;4.30;;;;;;;17.48;81.72;95731.59;2606841;54;20042;-62
2021/08/17 08:06:02;;;;;;;4.78;3.30;;;;;;;17.50;80.94;95745.41;2608896;39;20271;-62
2021/08/17 08:08:30;;;;;;;4.40;2.28;;;;;;;17.38;78.62;95753.16;2604528;54;20069;-62
2021/08/17 08:10:58;;;;;;;6.22;3.70;;;;;;;17.29;80.86;95750.44;2606364;54;20042;-63
2021/08/17 08:13:25;;;;;;;4.55;3.58;;;;;;;17.24;82.54;95757.75;2609836;39;20509;-63
2021/08/17 08:15:53;;;;;;;7.00;4.00;;;;;;;17.14;85.71;95764.09;2609910;54;20038;-63
2021/08/17 08:18:21;;;;;;;3.85;3.47;;;;;;;17.11;82.88;95770.84;2608882;54;20038;-64
2021/08/17 08:20:49;;;;;;;4.43;3.45;;;;;;;17.10;84.84;95763.16;2605970;54;20065;-65
2021/08/17 08:23:17;;;;;;;7.05;3.78;;;;;;;17.16;86.99;95777.94;2606903;54;20045;-65
2021/08/17 08:25:45;;;;;;;4.68;4.05;;;;;;;17.32;86.30;95776.50;2607388;54;20046;-63
2021/08/17 08:28:13;;;;;;;5.40;4.43;;;;;;;17.30;87.96;95762.69;2609743;54;20046;-62
2021/08/17 08:30:41;;;;;;;4.93;4.18;;;;;;;17.31;87.87;95790.09;2609636;54;20161;-65
2021/08/17 08:33:08;;;;;;;6.05;4.13;;;;;;;17.28;86.34;95780.84;2608759;54;20073;-64
2021/08/17 08:35:36;;;;;;;8.02;4.75;;;;;;;17.13;86.02;95782.00;2609410;54;20046;-63
2021/08/17 08:38:04;;;;;;;5.00;4.45;;;;;;;17.05;85.82;95804.00;2607287;54;20038;-63
2021/08/17 08:40:32;;;;;;;4.57;3.60;;;;;;;16.85;86.41;95811.31;2608980;39;20453;-62
2021/08/17 08:43:04;;;;;;;5.05;4.18;;;;;;;16.78;86.67;95832.25;2610581;54;20038;-63
2021/08/17 08:45:49;;;;;;;7.32;4.43;;;;;;;16.70;86.66;95857.72;2611650;46;20043;-63
2021/08/17 08:48:20;;;;;;;7.55;4.60;;;;;;;16.49;89.15;95870.63;2608161;54;20134;-64
2021/08/17 08:50:50;;;;;;;4.47;3.20;;;;;;;16.22;84.36;95874.03;2607866;54;20035;-64
2021/08/17 08:53:20;;;;;;;2.08;1.73;;;;;;;15.94;81.80;95882.72;2607396;39;20195;-62
2021/08/17 08:55:50;;;;;;;4.57;2.35;;;;;;;15.77;85.81;95901.06;2605529;54;20046;-64
2021/08/17 08:58:18;;;;;;;4.68;1.90;;;;;;;15.50;84.83;95895.34;2605013;47;20038;-64
2021/08/17 09:00:46;;;;;;;2.47;1.92;;;;;;;15.45;85.56;95899.91;2605624;54;21151;-64
2021/08/17 09:03:15;;;;;;;2.67;2.03;;;;;;;15.40;84.85;95899.97;2606497;39;20431;-63
2021/08/17 09:05:51;;;;;;;3.03;1.75;;;;;;;15.47;86.79;95903.06;2604140;54;20042;-62
2021/08/17 09:08:29;;;;;;;1.98;1.50;;;;;;;15.68;83.18;95903.56;2605466;39;20419;-63
2021/08/17 09:11:22;;;;;;;3.05;1.10;;;;;;;16.10;80.15;95920.53;2605254;54;20042;-62
2021/08/17 09:13:50;;;;;;;0.85;0.77;;;;;;;16.40;75.96;95920.31;2604824;54;20082;-62
2021/08/17 09:16:31;;;;;;;1.38;1.10;;;;;;;16.66;72.65;95925.19;2603696;54;20042;-63
2021/08/17 09:18:59;;;;;;;2.20;1.00;;;;;;;16.84;74.00;95932.28;2602320;54;20050;-63
2021/08/17 09:21:33;;;;;;;2.78;0.80;;;;;;;17.05;73.10;95929.25;2606777;54;20050;-63
2021/08/17 09:24:17;;;;;;;8.13;2.08;;;;;;;17.21;71.74;95927.09;2607401;54;21312;-63
2021/08/17 09:26:53;;;;;;;0.80;0.52;;;;;;;17.16;71.00;95935.19;2603867;54;20157;-64
2021/08/17 09:29:28;;;;;;;1.75;0.63;;;;;;;17.45;70.78;95934.06;2605381;54;20077;-64
2021/08/17 09:32:01;;;;;;;1.17;0.60;;;;;;;17.56;72.41;95946.09;2608399;39;20536;-63
2021/08/17 09:34:32;;;;;;;0.80;0.40;;;;;;;17.90;67.64;95946.69;2606890;54;20039;-66
2021/08/17 09:37:07;;;;;;;2.35;0.95;;;;;;;18.19;68.76;95950.84;2607804;54;20050;-65
2021/08/17 09:39:44;;;;;;;0.80;0.45;;;;;;;18.13;66.31;95969.69;2606460;54;20043;-63
2021/08/17 09:42:16;;;;;;;0.73;0.47;;;;;;;17.92;66.44;95979.19;2606512;47;20042;-63
2021/08/17 09:45:08;;;;;;;0.60;0.57;;;;;;;17.88;65.41;95975.56;2605982;54;20042;-63
2021/08/17 09:47:42;;;;;;;2.30;0.50;;;;;;;17.82;65.76;95973.00;2607508;54;20038;-62
2021/08/17 09:50:22;;;;;;;2.15;0.57;;;;;;;17.51;67.13;95986.19;2607569;54;20046;-62
2021/08/17 09:53:04;;;;;;;0.80;0.80;;;;;;;17.34;68.46;96006.28;2608689;54;20026;-64
2021/08/17 09:55:45;;;;;;;1.25;0.95;;;;;;;17.36;65.55;95996.06;2607077;54;20081;-64
2021/08/17 09:58:17;;;;;;;1.50;0.85;;;;;;;17.26;61.38;95998.94;2605572;39;20519;-64
2021/08/17 10:00:47;;;;;;;4.28;1.38;;;;;;;17.17;67.33;96006.06;2605628;54;20069;-62
2021/08/17 10:03:17;;;;;;;2.30;1.10;;;;;;;17.14;63.78;96002.13;2603601;54;20065;-62
2021/08/17 10:05:48;;;;;;;1.25;1.15;;;;;;;17.19;64.53;96002.00;2605829;54;20077;-64
2021/08/17 10:08:17;;;;;;;1.77;1.08;;;;;;;17.29;65.28;96001.03;2604453;54;20065;-64
2021/08/17 10:10:47;;;;;;;4.13;1.98;;;;;;;17.30;66.14;96001.81;2604749;39;20465;-64
2021/08/17 10:13:20;;;;;;;1.75;0.90;;;;;;;17.28;65.95;95998.69;2606439;39;20500;-62
2021/08/17 10:15:50;;;;;;;0.85;0.80;;;;;;;17.17;65.82;95985.50;2606263;54;20042;-63
2021/08/17 10:18:40;;;;;;;2.67;0.95;;;;;;;17.02;64.06;95991.16;2603776;54;20041;-63
2021/08/17 10:21:09;;;;;;;1.08;0.90;;;;;;;16.98;64.54;95987.50;2603842;54;20077;-63
2021/08/17 10:23:44;;;;;;;2.58;1.13;;;;;;;16.98;65.32;96000.81;2605363;54;20046;-62
2021/08/17 10:26:33;;;;;;;1.77;0.90;;;;;;;17.01;65.25;95997.56;2605629;54;20038;-63
2021/08/17 10:29:27;;;;;;;1.13;1.02;;;;;;;16.95;63.41;95998.72;2605905;54;20880;-64
2021/08/17 10:31:57;;;;;;;1.63;1.25;;;;;;;16.95;62.54;96002.19;2603094;54;20041;-63
2021/08/17 10:34:37;;;;;;;2.40;1.65;;;;;;;16.93;64.13;95996.34;2608150;54;20078;-63
2021/08/17 10:37:26;;;;;;;1.70;1.60;;;;;;;16.92;64.20;96003.53;2604761;54;20046;-63
2021/08/17 10:40:04;;;;;;;1.85;1.70;;;;;;;16.91;65.12;95996.66;2607859;54;20042;-63
2021/08/17 10:42:31;;;;;;;2.63;2.05;;;;;;;16.86;63.80;96010.06;2606887;54;20035;-63
2021/08/17 10:45:36;;;;;;;1.58;1.13;;;;;;;16.74;63.27;96015.06;2606114;54;20648;-63
2021/08/17 10:48:08;;;;;;;2.55;1.67;;;;;;;16.79;63.86;96012.31;2606366;54;20034;-63
2021/08/17 10:50:35;;;;;;;3.50;2.45;;;;;;;16.78;64.46;96018.72;2606774;54;20042;-64
2021/08/17 10:53:40;;;;;;;2.05;1.65;;;;;;;16.69;64.35;96025.78;2603976;54;20068;-64
2021/08/17 10:56:12;;;;;;;2.45;1.92;;;;;;;16.45;64.29;96024.03;2605676;54;20074;-63
2021/08/17 10:58:42;;;;;;;2.83;2.22;;;;;;;16.47;64.16;96018.44;2608562;39;20141;-64
2021/08/17 11:01:10;;;;;;;3.03;2.10;;;;;;;16.52;63.68;96032.47;2609662;39;20520;-64
2021/08/17 11:03:41;;;;;;;2.05;1.77;;;;;;;16.59;61.99;96046.19;2609490;54;20114;-62
2021/08/17 11:06:11;;;;;;;3.33;1.73;;;;;;;16.77;61.67;96062.44;2607697;39;20240;-63
2021/08/17 11:08:40;;;;;;;1.30;1.20;;;;;;;16.85;60.71;96053.75;2606995;54;20034;-62
2021/08/17 11:11:21;;;;;;;2.42;1.90;;;;;;;17.12;61.85;96035.47;2605844;54;20046;-63
2021/08/17 11:14:07;;;;;;;3.58;2.20;;;;;;;17.26;62.02;96044.28;2605372;54;20069;-64
2021/08/17 11:16:44;;;;;;;1.80;1.70;;;;;;;17.43;61.90;96051.69;2607006;54;20045;-63
2021/08/17 11:19:12;;;;;;;2.67;1.98;;;;;;;17.65;62.55;96050.22;2609828;54;20640;-63
2021/08/17 11:21:46;;;;;;;1.83;1.70;;;;;;;17.91;60.01;96047.00;2607282;54;20074;-63
2021/08/17 11:24:21;;;;;;;2.13;1.45;;;;;;;18.12;59.00;96053.53;2609227;54;20572;-63
2021/08/17 11:26:54;;;;;;;3.15;2.08;;;;;;;18.13;59.29;96052.44;2609351;54;20081;-63
2021/08/17 11:29:23;;;;;;;5.28;2.72;;;;;;;18.28;59.35;96055.81;2610796;46;20089;-63
2021/08/17 11:31:51;;;;;;;3.42;2.58;;;;;;;18.39;57.75;96057.19;2606990;54;20657;-63
2021/08/17 11:34:46;;;;;;;2.55;2.00;;;;;;;18.57;58.07;96059.97;2610004;47;20126;-69
2021/08/17 11:37:14;;;;;;;5.05;3.83;;;;;;;18.55;55.92;96062.16;2609275;54;20553;-65
2021/08/17 11:39:50;;;;;;;5.50;3.67;;;;;;;18.65;56.43;96063.81;2603859;54;20042;-61
2021/08/17 11:42:21;;;;;;;10.70;7.47;;;;;;;18.86;56.07;96053.44;2606642;54;20053;-62
2021/08/17 11:44:51;;;;;;;5.30;3.33;;;;;;;19.06;53.86;96060.16;2607422;54;20154;-62
2021/08/17 11:47:20;;;;;;;5.18;2.60;;;;;;;19.49;51.67;96064.91;2608575;54;20042;-63
2021/08/17 11:49:55;;;;;;;8.73;4.65;;;;;;;19.35;52.06;96064.22;2608497;54;20896;-63
2021/08/17 11:52:37;;;;;;;19.63;3.35;;;;;;;19.46;51.78;96062.84;2607288;54;20046;-62